createdAt,value
2022-08-26T00:00:20.847Z,22.67
2022-08-26T00:01:24.335Z,22.58
2022-08-26T00:02:32.793Z,22.62
2022-08-26T00:03:36.694Z,22.65
2022-08-26T00:04:39.481Z,22.61
2022-08-26T00:05:43.619Z,22.64
2022-08-26T00:06:46.547Z,22.69
2022-08-26T00:07:50.146Z,22.68
2022-08-26T00:08:54.501Z,22.72
2022-08-26T00:09:57.562Z,22.64
2022-08-26T00:11:00.953Z,22.52
2022-08-26T00:12:05.878Z,22.61
2022-08-26T00:13:10.448Z,22.51
2022-08-26T00:14:14.080Z,22.53
2022-08-26T00:15:20.973Z,22.48
2022-08-26T00:16:26.005Z,22.53
2022-08-26T00:17:28.980Z,22.54
2022-08-26T00:18:33.185Z,22.51
2022-08-26T00:19:41.642Z,22.49
2022-08-26T00:20:44.684Z,22.44
2022-08-26T00:21:48.643Z,22.49
2022-08-26T00:22:52.690Z,22.45
2022-08-26T00:23:55.558Z,22.43
2022-08-26T00:24:58.535Z,22.44
2022-08-26T00:26:02.595Z,22.48
2022-08-26T00:27:06.386Z,22.42
2022-08-26T00:28:10.829Z,22.50
2022-08-26T00:29:14.779Z,22.44
2022-08-26T00:30:24.161Z,22.44
2022-08-26T00:31:31.120Z,22.38
2022-08-26T00:32:34.940Z,22.41
2022-08-26T00:33:40.734Z,22.36
2022-08-26T00:34:47.158Z,22.37
2022-08-26T00:35:51.560Z,22.40
2022-08-26T00:36:54.818Z,22.35
2022-08-26T00:37:58.062Z,22.44
2022-08-26T00:39:00.940Z,22.48
2022-08-26T00:40:07.661Z,22.45
2022-08-26T00:41:14.442Z,22.38
2022-08-26T00:42:19.985Z,22.37
2022-08-26T00:43:25.703Z,22.34
2022-08-26T00:44:28.501Z,22.39
2022-08-26T00:45:47.479Z,22.39
2022-08-26T00:46:56.114Z,22.39
2022-08-26T00:48:03.802Z,22.40
2022-08-26T00:49:44.556Z,22.37
2022-08-26T00:51:03.630Z,22.38
2022-08-26T00:52:14.866Z,22.41
2022-08-26T00:53:26.039Z,22.41
2022-08-26T00:54:36.314Z,22.38
2022-08-26T00:55:45.311Z,22.33
2022-08-26T00:57:02.753Z,22.36
2022-08-26T00:58:08.476Z,22.46
2022-08-26T00:59:13.499Z,22.36
2022-08-26T01:00:24.288Z,22.32
2022-08-26T01:01:28.678Z,22.36
2022-08-26T01:02:33.641Z,22.37
2022-08-26T01:03:39.435Z,22.38
2022-08-26T01:04:43.214Z,22.33
2022-08-26T01:05:48.546Z,22.33
2022-08-26T01:06:54.731Z,22.34
2022-08-26T01:07:57.476Z,22.38
2022-08-26T01:09:00.333Z,22.35
2022-08-26T01:10:06.959Z,22.35
2022-08-26T01:11:12.767Z,22.30
2022-08-26T01:12:15.743Z,22.33
2022-08-26T01:13:25.601Z,22.32
2022-08-26T01:14:33.000Z,22.35
2022-08-26T01:15:49.471Z,22.36
2022-08-26T01:16:53.312Z,22.33
2022-08-26T01:17:58.572Z,22.35
2022-08-26T01:19:16.052Z,22.41
2022-08-26T01:20:57.663Z,22.40
2022-08-26T01:22:10.474Z,22.36
2022-08-26T01:23:15.351Z,22.38
2022-08-26T01:24:18.831Z,22.42
2022-08-26T01:25:24.260Z,22.43
2022-08-26T01:26:35.479Z,22.39
2022-08-26T01:27:39.010Z,22.39
2022-08-26T01:28:42.925Z,22.38
2022-08-26T01:29:49.554Z,22.37
2022-08-26T01:30:55.211Z,22.34
2022-08-26T01:32:02.200Z,22.35
2022-08-26T01:33:15.397Z,22.35
2022-08-26T01:34:22.482Z,22.37
2022-08-26T01:35:25.672Z,22.37
2022-08-26T01:36:29.183Z,22.36
2022-08-26T01:37:40.326Z,22.31
2022-08-26T01:38:45.042Z,22.35
2022-08-26T01:39:54.055Z,22.34
2022-08-26T01:40:57.436Z,22.31
2022-08-26T01:42:03.188Z,22.31
2022-08-26T01:43:09.063Z,22.24
2022-08-26T01:44:21.603Z,22.21
2022-08-26T01:45:28.785Z,22.31
2022-08-26T01:46:32.724Z,22.32
2022-08-26T01:47:38.121Z,22.28
2022-08-26T01:48:43.045Z,22.31
2022-08-26T01:49:50.797Z,22.30
2022-08-26T01:50:54.931Z,22.28
2022-08-26T01:51:59.192Z,22.26
2022-08-26T01:53:06.708Z,22.21
2022-08-26T01:54:12.027Z,22.14
2022-08-26T01:55:33.303Z,22.07
2022-08-26T01:56:37.074Z,22.15
2022-08-26T01:57:40.571Z,22.22
2022-08-26T01:58:52.834Z,22.17
2022-08-26T02:00:00.306Z,22.14
2022-08-26T02:01:04.132Z,22.14
2022-08-26T02:02:11.203Z,22.13
2022-08-26T02:03:17.510Z,22.12
2022-08-26T02:04:32.564Z,22.11
2022-08-26T02:05:35.704Z,22.13
2022-08-26T02:06:39.477Z,22.07
2022-08-26T02:07:45.057Z,22.07
2022-08-26T02:08:52.556Z,22.13
2022-08-26T02:09:55.774Z,22.16
2022-08-26T02:10:58.711Z,22.11
2022-08-26T02:12:02.103Z,22.15
2022-08-26T02:13:08.394Z,22.18
2022-08-26T02:14:34.877Z,22.15
2022-08-26T02:15:44.783Z,22.21
2022-08-26T02:16:50.956Z,22.19
2022-08-26T02:17:54.169Z,22.29
2022-08-26T02:19:01.997Z,22.28
2022-08-26T02:20:07.626Z,22.28
2022-08-26T02:21:17.473Z,22.26
2022-08-26T02:22:23.015Z,22.24
2022-08-26T02:23:27.784Z,22.35
2022-08-26T02:24:49.673Z,22.32
2022-08-26T02:25:52.434Z,22.43
2022-08-26T02:26:57.869Z,22.35
2022-08-26T02:28:00.993Z,22.32
2022-08-26T02:29:13.532Z,22.36
2022-08-26T02:30:27.344Z,22.33
2022-08-26T02:31:31.471Z,22.34
2022-08-26T02:32:35.126Z,22.35
2022-08-26T02:33:38.429Z,22.33
2022-08-26T02:34:46.311Z,22.29
2022-08-26T02:35:49.258Z,22.24
2022-08-26T02:36:52.150Z,22.25
2022-08-26T02:37:55.198Z,22.27
2022-08-26T02:38:59.664Z,22.32
2022-08-26T02:40:02.741Z,22.30
2022-08-26T02:41:06.183Z,22.26
2022-08-26T02:42:11.639Z,22.34
2022-08-26T02:43:14.443Z,22.31
2022-08-26T02:44:17.785Z,22.30
2022-08-26T02:45:25.270Z,22.31
2022-08-26T02:46:30.144Z,22.38
2022-08-26T02:47:34.288Z,22.35
2022-08-26T02:48:37.775Z,22.35
2022-08-26T02:49:44.374Z,22.41
2022-08-26T02:50:50.046Z,22.39
2022-08-26T02:51:53.326Z,22.46
2022-08-26T02:52:56.504Z,22.49
2022-08-26T02:53:59.327Z,22.58
2022-08-26T02:55:02.252Z,22.62
2022-08-26T02:56:07.949Z,22.56
2022-08-26T02:57:11.847Z,22.66
2022-08-26T02:58:15.622Z,22.57
2022-08-26T02:59:18.973Z,22.55
2022-08-26T03:00:22.059Z,22.66
2022-08-26T03:01:31.759Z,22.63
2022-08-26T03:02:34.895Z,22.64
2022-08-26T03:03:37.663Z,22.73
2022-08-26T03:04:41.643Z,22.74
2022-08-26T03:06:01.571Z,22.76
2022-08-26T03:07:05.001Z,22.84
2022-08-26T03:08:12.038Z,22.87
2022-08-26T03:09:18.667Z,22.86
2022-08-26T03:10:21.992Z,22.86
2022-08-26T03:11:25.527Z,22.84
2022-08-26T03:12:31.613Z,22.86
2022-08-26T03:13:36.617Z,22.84
2022-08-26T03:14:39.528Z,22.82
2022-08-26T03:15:47.656Z,22.81
2022-08-26T03:16:54.340Z,22.85
2022-08-26T03:17:57.199Z,22.88
2022-08-26T03:19:00.499Z,22.91
2022-08-26T03:21:15.841Z,22.77
2022-08-26T03:22:21.123Z,22.66
2022-08-26T03:23:24.006Z,22.71
2022-08-26T03:24:26.957Z,22.74
2022-08-26T03:25:29.767Z,22.84
2022-08-26T03:26:32.555Z,22.97
2022-08-26T03:27:35.404Z,22.93
2022-08-26T03:28:58.879Z,22.72
2022-08-26T03:30:20.760Z,22.66
2022-08-26T03:31:24.630Z,22.74
2022-08-26T03:32:27.590Z,22.83
2022-08-26T03:33:35.233Z,22.77
2022-08-26T03:34:38.701Z,22.78
2022-08-26T03:35:43.761Z,22.83
2022-08-26T03:36:50.465Z,22.74
2022-08-26T03:37:54.124Z,22.73
2022-08-26T03:38:57.284Z,22.83
2022-08-26T03:40:01.315Z,22.74
2022-08-26T03:41:04.189Z,22.70
2022-08-26T03:42:10.799Z,22.74
2022-08-26T03:43:16.191Z,22.68
2022-08-26T03:44:19.057Z,22.63
2022-08-26T03:45:22.315Z,22.69
2022-08-26T03:46:25.468Z,22.73
2022-08-26T03:47:31.023Z,22.78
2022-08-26T03:48:34.376Z,22.81
2022-08-26T03:49:38.198Z,22.79
2022-08-26T03:50:42.779Z,22.76
2022-08-26T03:51:46.019Z,22.74
2022-08-26T03:52:49.194Z,22.75
2022-08-26T03:53:52.063Z,22.75
2022-08-26T03:54:55.070Z,22.75
2022-08-26T03:55:58.058Z,22.78
2022-08-26T03:57:00.949Z,22.78
2022-08-26T03:58:04.374Z,22.78
2022-08-26T03:59:07.807Z,22.78
2022-08-26T04:00:18.376Z,22.80
2022-08-26T04:01:21.443Z,22.70
2022-08-26T04:02:24.750Z,22.75
2022-08-26T04:03:46.941Z,22.83
2022-08-26T04:04:49.697Z,22.77
2022-08-26T04:05:56.263Z,22.78
2022-08-26T04:07:00.164Z,22.79
2022-08-26T04:08:07.321Z,22.78
2022-08-26T04:09:13.776Z,22.76
2022-08-26T04:10:20.361Z,22.81
2022-08-26T04:11:27.043Z,22.71
2022-08-26T04:12:30.160Z,22.77
2022-08-26T04:13:33.924Z,22.70
2022-08-26T04:14:37.845Z,22.62
2022-08-26T04:15:42.049Z,22.65
2022-08-26T04:16:45.863Z,22.73
2022-08-26T04:17:50.039Z,22.72
2022-08-26T04:18:53.168Z,22.65
2022-08-26T04:19:56.099Z,22.64
2022-08-26T04:21:00.059Z,22.61
2022-08-26T04:22:03.152Z,22.61
2022-08-26T04:23:06.131Z,22.63
2022-08-26T04:24:11.906Z,22.63
2022-08-26T04:25:15.315Z,22.65
2022-08-26T04:26:20.762Z,22.60
2022-08-26T04:27:24.181Z,22.56
2022-08-26T04:28:29.193Z,22.59
2022-08-26T04:29:31.999Z,22.61
2022-08-26T04:30:38.860Z,22.58
2022-08-26T04:31:42.295Z,22.53
2022-08-26T04:32:45.831Z,22.45
2022-08-26T04:33:50.112Z,22.51
2022-08-26T04:34:52.901Z,22.56
2022-08-26T04:36:05.789Z,22.53
2022-08-26T04:37:09.172Z,22.52
2022-08-26T04:38:17.004Z,22.36
2022-08-26T04:39:20.998Z,22.35
2022-08-26T04:40:24.583Z,22.16
2022-08-26T04:41:31.528Z,22.20
2022-08-26T04:42:34.827Z,22.13
2022-08-26T04:43:38.376Z,22.10
2022-08-26T04:44:41.816Z,22.06
2022-08-26T04:45:44.996Z,22.00
2022-08-26T04:46:48.411Z,22.02
2022-08-26T04:47:59.351Z,22.16
2022-08-26T04:49:02.877Z,22.23
2022-08-26T04:50:07.521Z,22.23
2022-08-26T04:51:10.875Z,22.23
2022-08-26T04:52:13.950Z,22.16
2022-08-26T04:53:16.795Z,22.01
2022-08-26T04:54:20.330Z,21.93
2022-08-26T04:55:38.261Z,21.84
2022-08-26T04:56:45.033Z,21.90
2022-08-26T04:57:48.219Z,22.03
2022-08-26T04:58:51.229Z,22.02
2022-08-26T04:59:57.381Z,21.94
2022-08-26T05:01:00.599Z,21.91
2022-08-26T05:02:04.056Z,21.92
2022-08-26T05:03:10.491Z,21.91
2022-08-26T05:04:16.305Z,21.93
2022-08-26T05:05:22.011Z,21.89
2022-08-26T05:06:26.205Z,21.89
2022-08-26T05:07:29.582Z,21.87
2022-08-26T05:08:34.792Z,21.85
2022-08-26T05:09:40.671Z,21.73
2022-08-26T05:10:54.796Z,21.76
2022-08-26T05:11:59.532Z,21.74
2022-08-26T05:13:03.709Z,21.82
2022-08-26T05:14:13.768Z,21.83
2022-08-26T05:15:16.717Z,21.84
2022-08-26T05:16:20.189Z,21.70
2022-08-26T05:17:23.332Z,21.84
2022-08-26T05:18:27.886Z,21.76
2022-08-26T05:19:31.613Z,21.76
2022-08-26T05:20:45.172Z,21.92
2022-08-26T05:21:50.155Z,21.89
2022-08-26T05:22:53.016Z,21.96
2022-08-26T05:23:57.041Z,21.97
2022-08-26T05:24:59.892Z,21.98
2022-08-26T05:26:07.036Z,21.96
2022-08-26T05:27:11.480Z,21.94
2022-08-26T05:28:17.159Z,21.96
2022-08-26T05:29:19.970Z,21.98
2022-08-26T05:30:23.288Z,22.02
2022-08-26T05:31:32.235Z,22.06
2022-08-26T05:32:35.103Z,22.09
2022-08-26T05:33:37.969Z,22.19
2022-08-26T05:34:44.305Z,22.13
2022-08-26T05:35:48.893Z,22.29
2022-08-26T05:36:52.732Z,22.23
2022-08-26T05:37:55.444Z,22.25
2022-08-26T05:38:58.643Z,22.28
2022-08-26T05:40:04.434Z,22.15
2022-08-26T05:41:16.628Z,22.20
2022-08-26T05:42:20.314Z,22.16
2022-08-26T05:43:23.055Z,22.23
2022-08-26T05:44:26.007Z,22.32
2022-08-26T05:45:28.809Z,22.47
2022-08-26T05:46:31.902Z,22.48
2022-08-26T05:47:34.779Z,22.53
2022-08-26T05:48:38.313Z,22.59
2022-08-26T05:49:49.268Z,22.65
2022-08-26T05:50:54.762Z,22.80
2022-08-26T05:51:57.834Z,22.98
2022-08-26T05:53:01.032Z,22.91
2022-08-26T05:54:08.326Z,23.02
2022-08-26T05:55:13.543Z,23.30
2022-08-26T05:56:16.666Z,23.27
2022-08-26T05:57:19.470Z,23.21
2022-08-26T05:58:27.474Z,23.27
2022-08-26T05:59:30.661Z,23.30
2022-08-26T06:00:35.302Z,23.33
2022-08-26T06:01:39.986Z,23.38
2022-08-26T06:02:43.009Z,23.44
2022-08-26T06:03:49.004Z,23.52
2022-08-26T06:04:51.965Z,23.60
2022-08-26T06:05:55.434Z,23.67
2022-08-26T06:06:58.840Z,23.77
2022-08-26T06:08:19.390Z,23.86
2022-08-26T06:09:22.443Z,23.92
2022-08-26T06:10:32.622Z,24.01
2022-08-26T06:11:35.783Z,24.03
2022-08-26T06:12:39.541Z,24.10
2022-08-26T06:13:42.870Z,24.07
2022-08-26T06:14:45.680Z,24.16
2022-08-26T06:15:52.043Z,24.19
2022-08-26T06:16:55.233Z,24.21
2022-08-26T06:17:58.112Z,24.35
2022-08-26T06:19:03.708Z,24.42
2022-08-26T06:20:13.832Z,24.51
2022-08-26T06:21:27.407Z,24.51
2022-08-26T06:23:02.680Z,24.60
2022-08-26T06:24:32.592Z,24.77
2022-08-26T06:25:39.177Z,24.81
2022-08-26T06:26:50.352Z,24.88
2022-08-26T06:27:53.614Z,25.05
2022-08-26T06:28:56.809Z,25.03
2022-08-26T06:29:59.587Z,24.90
2022-08-26T06:31:04.026Z,24.84
2022-08-26T06:32:07.370Z,25.01
2022-08-26T06:33:11.773Z,25.04
2022-08-26T06:34:14.990Z,25.10
2022-08-26T06:35:18.471Z,25.11
2022-08-26T06:36:25.639Z,25.28
2022-08-26T06:37:28.710Z,25.57
2022-08-26T06:38:32.135Z,25.53
2022-08-26T06:39:35.420Z,25.50
2022-08-26T06:40:49.005Z,25.62
2022-08-26T06:41:52.309Z,25.71
2022-08-26T06:42:55.119Z,25.93
2022-08-26T06:43:58.610Z,26.07
2022-08-26T06:45:01.682Z,26.08
2022-08-26T06:46:11.670Z,26.21
2022-08-26T06:47:14.779Z,26.31
2022-08-26T06:48:21.132Z,26.21
2022-08-26T06:49:26.516Z,26.25
2022-08-26T06:50:30.384Z,26.23
2022-08-26T06:51:36.498Z,26.11
2022-08-26T06:52:42.258Z,26.24
2022-08-26T06:53:47.293Z,26.26
2022-08-26T06:54:51.170Z,26.44
2022-08-26T06:55:54.046Z,26.30
2022-08-26T06:56:57.407Z,26.31
2022-08-26T06:58:00.190Z,26.28
2022-08-26T06:59:04.364Z,26.34
2022-08-26T07:00:11.911Z,26.35
2022-08-26T07:01:23.769Z,26.25
2022-08-26T07:02:28.528Z,26.33
2022-08-26T07:03:31.692Z,26.49
2022-08-26T07:04:42.435Z,26.56
2022-08-26T07:05:45.502Z,26.69
2022-08-26T07:06:50.337Z,26.77
2022-08-26T07:07:58.250Z,26.96
2022-08-26T07:09:05.300Z,26.98
2022-08-26T07:10:08.920Z,26.84
2022-08-26T07:11:12.510Z,26.75
2022-08-26T07:12:15.387Z,26.99
2022-08-26T07:13:18.541Z,27.10
2022-08-26T07:14:34.955Z,27.13
2022-08-26T07:15:42.464Z,27.14
2022-08-26T07:16:45.352Z,27.21
2022-08-26T07:17:48.235Z,27.42
2022-08-26T07:18:53.303Z,27.60
2022-08-26T07:19:56.258Z,27.70
2022-08-26T07:21:01.882Z,27.58
2022-08-26T07:22:06.764Z,27.59
2022-08-26T07:23:11.791Z,27.62
2022-08-26T07:24:15.714Z,27.86
2022-08-26T07:25:19.461Z,27.83
2022-08-26T07:26:26.427Z,28.07
2022-08-26T07:27:31.436Z,27.99
2022-08-26T07:28:34.527Z,28.19
2022-08-26T07:29:39.647Z,28.30
2022-08-26T07:30:42.781Z,28.26
2022-08-26T07:31:46.154Z,28.17
2022-08-26T07:32:52.606Z,27.99
2022-08-26T07:33:55.480Z,28.01
2022-08-26T07:34:58.641Z,28.15
2022-08-26T07:36:01.650Z,28.18
2022-08-26T07:37:08.756Z,28.35
2022-08-26T07:38:13.522Z,28.28
2022-08-26T07:39:16.966Z,28.55
2022-08-26T07:40:19.934Z,28.50
2022-08-26T07:41:24.953Z,28.54
2022-08-26T07:42:27.765Z,28.83
2022-08-26T07:43:31.166Z,28.90
2022-08-26T07:44:35.145Z,28.99
2022-08-26T07:45:38.332Z,29.18
2022-08-26T07:46:41.772Z,29.45
2022-08-26T07:47:48.030Z,29.33
2022-08-26T07:48:51.687Z,29.17
2022-08-26T07:49:58.486Z,29.27
2022-08-26T07:51:01.560Z,29.14
2022-08-26T07:52:06.176Z,29.22
2022-08-26T07:53:10.766Z,29.25
2022-08-26T07:54:13.805Z,29.41
2022-08-26T07:55:17.729Z,29.41
2022-08-26T07:56:24.371Z,29.36
2022-08-26T07:57:28.755Z,29.30
2022-08-26T07:58:32.087Z,29.52
2022-08-26T07:59:34.912Z,29.65
2022-08-26T08:00:37.884Z,29.82
2022-08-26T08:01:41.124Z,29.56
2022-08-26T08:02:47.805Z,29.51
2022-08-26T08:03:54.029Z,29.82
2022-08-26T08:04:58.166Z,30.08
2022-08-26T08:06:01.149Z,30.15
2022-08-26T08:07:04.094Z,30.13
2022-08-26T08:08:26.988Z,30.03
2022-08-26T08:09:30.802Z,30.13
2022-08-26T08:10:36.735Z,30.45
2022-08-26T08:11:40.030Z,30.51
2022-08-26T08:12:43.590Z,30.42
2022-08-26T08:13:46.529Z,30.59
2022-08-26T08:14:50.222Z,30.35
2022-08-26T08:15:53.016Z,30.56
2022-08-26T08:16:56.186Z,30.77
2022-08-26T08:18:00.942Z,30.83
2022-08-26T08:19:04.003Z,31.04
2022-08-26T08:20:09.002Z,31.18
2022-08-26T08:21:21.669Z,31.24
2022-08-26T08:22:25.660Z,31.32
2022-08-26T08:23:31.851Z,31.72
2022-08-26T08:24:35.558Z,31.69
2022-08-26T08:25:38.629Z,31.84
2022-08-26T08:26:42.013Z,31.69
2022-08-26T08:27:51.102Z,31.95
2022-08-26T08:28:55.794Z,31.86
2022-08-26T08:29:58.639Z,31.63
2022-08-26T08:31:02.350Z,31.72
2022-08-26T08:32:06.596Z,31.89
2022-08-26T08:33:14.570Z,32.15
2022-08-26T08:34:18.419Z,32.00
2022-08-26T08:35:23.228Z,32.14
2022-08-26T08:36:26.281Z,32.06
2022-08-26T08:37:39.126Z,31.88
2022-08-26T08:38:42.740Z,32.00
2022-08-26T08:39:46.317Z,32.03
2022-08-26T08:40:51.773Z,32.11
2022-08-26T08:42:30.606Z,32.35
2022-08-26T08:43:42.178Z,32.53
2022-08-26T08:44:52.101Z,32.80
2022-08-26T08:46:04.410Z,32.59
2022-08-26T08:47:19.575Z,32.79
2022-08-26T08:48:33.643Z,32.98
2022-08-26T08:49:36.632Z,32.97
2022-08-26T08:50:50.330Z,32.94
2022-08-26T08:52:07.797Z,32.72
2022-08-26T08:53:18.002Z,32.91
2022-08-26T08:54:22.027Z,32.85
2022-08-26T08:55:31.602Z,32.88
2022-08-26T08:56:43.137Z,33.19
2022-08-26T08:58:05.834Z,33.50
2022-08-26T08:59:16.721Z,33.46
2022-08-26T09:00:30.265Z,33.47
2022-08-26T09:01:53.941Z,33.66
2022-08-26T09:03:04.031Z,33.98
2022-08-26T09:04:17.222Z,33.64
2022-08-26T09:05:35.760Z,33.85
2022-08-26T09:06:39.108Z,34.14
2022-08-26T09:07:52.761Z,34.24
2022-08-26T09:08:56.669Z,34.06
2022-08-26T09:10:39.699Z,34.29
2022-08-26T09:11:43.651Z,34.59
2022-08-26T09:12:48.328Z,34.77
2022-08-26T09:13:54.660Z,34.00
2022-08-26T09:15:04.050Z,33.57
2022-08-26T09:16:25.062Z,33.63
2022-08-26T09:17:44.687Z,34.00
2022-08-26T09:19:14.728Z,34.02
2022-08-26T09:20:33.998Z,34.27
2022-08-26T09:21:37.742Z,34.14
2022-08-26T09:22:44.184Z,34.68
2022-08-26T09:23:49.674Z,34.55
2022-08-26T09:24:53.090Z,34.55
2022-08-26T09:25:57.517Z,34.68
2022-08-26T09:27:01.223Z,34.85
2022-08-26T09:28:15.334Z,34.51
2022-08-26T09:29:27.535Z,34.70
2022-08-26T09:30:35.030Z,34.47
2022-08-26T09:31:42.396Z,34.41
2022-08-26T09:32:59.134Z,34.53
2022-08-26T09:34:17.324Z,34.97
2022-08-26T09:35:39.710Z,34.83
2022-08-26T09:36:49.239Z,34.87
2022-08-26T09:39:00.341Z,35.11
2022-08-26T09:40:34.861Z,35.06
2022-08-26T09:41:38.071Z,35.62
2022-08-26T09:42:40.905Z,35.33
2022-08-26T09:44:14.614Z,35.09
2022-08-26T09:45:28.567Z,35.56
2022-08-26T09:46:33.349Z,35.84
2022-08-26T09:47:48.354Z,35.88
2022-08-26T09:48:51.750Z,36.15
2022-08-26T09:50:34.622Z,35.91
2022-08-26T09:51:37.751Z,35.65
2022-08-26T09:52:45.542Z,35.76
2022-08-26T09:53:58.027Z,35.61
2022-08-26T09:55:06.862Z,35.94
2022-08-26T09:56:29.292Z,35.94
2022-08-26T09:57:44.940Z,35.87
2022-08-26T09:58:48.545Z,35.87
2022-08-26T09:59:51.688Z,36.41
2022-08-26T10:00:58.032Z,35.68
2022-08-26T10:02:32.740Z,35.82
2022-08-26T10:03:39.836Z,36.38
2022-08-26T10:04:51.514Z,36.57
2022-08-26T10:06:00.995Z,35.81
2022-08-26T10:07:08.418Z,36.31
2022-08-26T10:08:25.151Z,36.43
2022-08-26T10:09:30.015Z,36.59
2022-08-26T10:10:40.566Z,36.45
2022-08-26T10:11:55.574Z,36.88
2022-08-26T10:13:29.523Z,36.41
2022-08-26T10:14:46.956Z,36.39
2022-08-26T10:16:16.688Z,36.69
2022-08-26T10:17:37.344Z,37.16
2022-08-26T10:18:48.523Z,37.40
2022-08-26T10:19:59.613Z,37.06
2022-08-26T10:21:13.224Z,36.67
2022-08-26T10:22:26.026Z,36.72
2022-08-26T10:23:33.039Z,37.00
2022-08-26T10:24:44.419Z,37.03
2022-08-26T10:26:05.375Z,37.22
2022-08-26T10:27:12.732Z,37.53
2022-08-26T10:28:30.335Z,37.42
2022-08-26T10:29:44.682Z,37.32
2022-08-26T10:30:56.885Z,37.43
2022-08-26T10:32:07.210Z,37.28
2022-08-26T10:33:13.392Z,37.04
2022-08-26T10:34:18.331Z,37.34
2022-08-26T10:35:24.559Z,37.33
2022-08-26T10:37:14.784Z,36.89
2022-08-26T10:38:17.418Z,36.99
2022-08-26T10:39:29.677Z,37.31
2022-08-26T10:40:50.327Z,37.09
2022-08-26T10:42:05.341Z,37.36
2022-08-26T10:43:34.776Z,37.79
2022-08-26T10:44:43.846Z,37.78
2022-08-26T10:45:53.229Z,37.88
2022-08-26T10:47:18.797Z,37.23
2022-08-26T10:48:56.755Z,37.11
2022-08-26T10:50:05.199Z,37.73
2022-08-26T10:51:12.780Z,36.65
2022-08-26T10:52:39.625Z,36.53
2022-08-26T10:54:01.902Z,36.82
2022-08-26T10:55:17.572Z,37.77
2022-08-26T10:56:48.596Z,38.03
2022-08-26T10:58:26.220Z,37.83
2022-08-26T10:59:51.669Z,37.00
2022-08-26T11:01:43.159Z,36.89
2022-08-26T11:02:50.571Z,37.31
2022-08-26T11:04:19.451Z,37.75
2022-08-26T11:05:25.532Z,37.07
2022-08-26T11:06:31.547Z,37.50
2022-08-26T11:07:46.466Z,37.76
2022-08-26T11:08:54.644Z,37.71
2022-08-26T11:10:07.371Z,37.04
2022-08-26T11:11:10.260Z,36.77
2022-08-26T11:12:35.384Z,37.38
2022-08-26T11:13:56.536Z,38.00
2022-08-26T11:14:59.709Z,38.10
2022-08-26T11:16:02.799Z,38.38
2022-08-26T11:17:12.107Z,38.52
2022-08-26T11:18:37.732Z,38.01
2022-08-26T11:19:59.622Z,37.35
2022-08-26T11:21:47.709Z,37.31
2022-08-26T11:22:54.958Z,38.00
2022-08-26T11:23:57.720Z,38.09
2022-08-26T11:25:04.394Z,38.32
2022-08-26T11:26:35.869Z,38.47
2022-08-26T11:27:46.626Z,37.94
2022-08-26T11:28:53.838Z,38.04
2022-08-26T11:30:10.071Z,38.02
2022-08-26T11:31:19.115Z,38.37
2022-08-26T11:32:45.215Z,38.18
2022-08-26T11:33:58.128Z,38.56
2022-08-26T11:35:19.888Z,37.72
2022-08-26T11:36:36.110Z,38.03
2022-08-26T11:37:48.495Z,38.59
2022-08-26T11:38:51.744Z,38.73
2022-08-26T11:39:57.303Z,38.48
2022-08-26T11:41:09.167Z,38.33
2022-08-26T11:42:32.210Z,38.51
2022-08-26T11:43:36.738Z,38.45
2022-08-26T11:44:49.343Z,38.81
2022-08-26T11:46:04.147Z,38.23
2022-08-26T11:47:11.504Z,38.17
2022-08-26T11:48:17.162Z,38.44
2022-08-26T11:49:20.358Z,37.58
2022-08-26T11:50:26.694Z,37.44
2022-08-26T11:51:32.003Z,37.46
2022-08-26T11:52:35.910Z,37.61
2022-08-26T11:53:47.205Z,37.73
2022-08-26T11:55:08.105Z,37.58
2022-08-26T11:56:33.420Z,37.62
2022-08-26T11:57:44.943Z,37.92
2022-08-26T11:58:48.488Z,38.20
2022-08-26T11:59:51.471Z,38.27
2022-08-26T12:01:01.885Z,38.20
2022-08-26T12:02:15.836Z,38.33
2022-08-26T12:03:35.962Z,38.69
2022-08-26T12:04:43.517Z,38.52
2022-08-26T12:05:49.754Z,38.96
2022-08-26T12:06:53.709Z,38.94
2022-08-26T12:07:57.322Z,38.10
2022-08-26T12:09:03.304Z,38.26
2022-08-26T12:10:11.110Z,38.30
2022-08-26T12:11:29.238Z,38.26
2022-08-26T12:12:36.033Z,37.69
2022-08-26T12:13:39.401Z,37.39
2022-08-26T12:14:43.883Z,37.89
2022-08-26T12:15:57.511Z,37.72
2022-08-26T12:17:14.185Z,37.70
2022-08-26T12:18:30.166Z,38.15
2022-08-26T12:19:34.510Z,37.80
2022-08-26T12:20:46.678Z,37.64
2022-08-26T12:21:49.873Z,37.94
2022-08-26T12:22:52.805Z,37.95
2022-08-26T12:24:00.414Z,38.06
2022-08-26T12:25:09.657Z,38.14
2022-08-26T12:26:21.480Z,38.24
2022-08-26T12:27:54.058Z,38.21
2022-08-26T12:29:00.555Z,38.14
2022-08-26T12:30:14.401Z,37.84
2022-08-26T12:31:43.331Z,38.05
2022-08-26T12:33:13.333Z,37.98
2022-08-26T12:34:28.614Z,38.24
2022-08-26T12:35:35.761Z,37.96
2022-08-26T12:36:46.909Z,38.07
2022-08-26T12:37:53.570Z,38.64
2022-08-26T12:38:58.425Z,38.52
2022-08-26T12:40:36.047Z,38.64
2022-08-26T12:41:51.094Z,38.59
2022-08-26T12:42:54.750Z,38.26
2022-08-26T12:43:57.814Z,38.30
2022-08-26T12:45:04.601Z,38.36
2022-08-26T12:46:24.858Z,38.27
2022-08-26T12:47:42.405Z,38.04
2022-08-26T12:48:49.513Z,38.08
2022-08-26T12:50:06.246Z,37.85
2022-08-26T12:51:30.753Z,38.25
2022-08-26T12:52:42.208Z,38.51
2022-08-26T12:53:44.957Z,38.35
2022-08-26T12:54:59.785Z,37.93
2022-08-26T12:56:22.771Z,38.17
2022-08-26T12:57:31.479Z,38.37
2022-08-26T12:58:40.226Z,37.93
2022-08-26T12:59:43.209Z,37.44
2022-08-26T13:00:58.059Z,37.39
2022-08-26T13:02:01.178Z,37.43
2022-08-26T13:03:04.356Z,37.52
2022-08-26T13:04:07.209Z,37.76
2022-08-26T13:05:24.697Z,37.88
2022-08-26T13:06:30.197Z,37.86
2022-08-26T13:07:33.296Z,37.83
2022-08-26T13:08:36.454Z,37.94
2022-08-26T13:09:39.349Z,37.85
2022-08-26T13:10:46.974Z,37.51
2022-08-26T13:11:49.690Z,37.52
2022-08-26T13:12:55.855Z,37.63
2022-08-26T13:14:09.100Z,37.67
2022-08-26T13:15:12.900Z,37.76
2022-08-26T13:16:16.206Z,37.64
2022-08-26T13:17:19.212Z,37.82
2022-08-26T13:18:22.338Z,37.57
2022-08-26T13:19:26.751Z,37.51
2022-08-26T13:20:29.952Z,37.30
2022-08-26T13:21:37.387Z,36.67
2022-08-26T13:23:44.923Z,37.42
2022-08-26T13:24:47.935Z,37.23
2022-08-26T13:25:52.039Z,37.05
2022-08-26T13:26:55.112Z,37.20
2022-08-26T13:27:58.323Z,37.05
2022-08-26T13:29:02.451Z,36.62
2022-08-26T13:30:06.256Z,36.85
2022-08-26T13:31:12.737Z,36.23
2022-08-26T13:32:18.256Z,36.72
2022-08-26T13:33:21.845Z,36.56
2022-08-26T13:34:24.805Z,36.68
2022-08-26T13:35:29.778Z,36.69
2022-08-26T13:36:32.823Z,36.92
2022-08-26T13:37:36.569Z,36.55
2022-08-26T13:38:39.538Z,36.22
2022-08-26T13:39:42.648Z,35.80
2022-08-26T13:40:45.619Z,35.68
2022-08-26T13:41:49.481Z,35.49
2022-08-26T13:42:52.513Z,35.73
2022-08-26T13:43:55.416Z,36.12
2022-08-26T13:44:59.174Z,36.25
2022-08-26T13:46:02.305Z,36.28
2022-08-26T13:47:06.583Z,36.14
2022-08-26T13:48:09.812Z,36.24
2022-08-26T13:49:12.961Z,35.93
2022-08-26T13:50:16.002Z,36.06
2022-08-26T13:51:20.708Z,36.14
2022-08-26T13:52:30.102Z,35.73
2022-08-26T13:53:33.492Z,35.94
2022-08-26T13:54:36.491Z,36.20
2022-08-26T13:55:39.449Z,36.11
2022-08-26T13:56:42.342Z,36.03
2022-08-26T13:57:45.263Z,36.26
2022-08-26T13:58:49.542Z,36.30
2022-08-26T13:59:54.234Z,36.20
2022-08-26T14:00:58.133Z,36.15
2022-08-26T14:02:03.192Z,36.21
2022-08-26T14:03:11.350Z,36.40
2022-08-26T14:04:16.066Z,36.27
2022-08-26T14:05:28.645Z,35.75
2022-08-26T14:06:32.598Z,34.97
2022-08-26T14:07:35.909Z,35.05
2022-08-26T14:08:40.785Z,35.68
2022-08-26T14:09:44.068Z,35.52
2022-08-26T14:11:54.782Z,35.66
2022-08-26T14:12:58.543Z,35.67
2022-08-26T14:14:01.715Z,35.74
2022-08-26T14:15:04.966Z,35.53
2022-08-26T14:16:24.772Z,35.63
2022-08-26T14:17:28.031Z,35.38
2022-08-26T14:18:41.801Z,35.16
2022-08-26T14:19:49.794Z,35.42
2022-08-26T14:20:52.965Z,35.57
2022-08-26T14:21:56.355Z,35.45
2022-08-26T14:23:15.190Z,35.68
2022-08-26T14:24:18.195Z,35.70
2022-08-26T14:25:25.483Z,35.50
2022-08-26T14:26:29.886Z,35.45
2022-08-26T14:27:35.225Z,35.67
2022-08-26T14:28:40.210Z,35.50
2022-08-26T14:29:46.955Z,35.50
2022-08-26T14:30:54.218Z,35.39
2022-08-26T14:31:58.937Z,35.13
2022-08-26T14:33:01.797Z,35.36
2022-08-26T14:34:07.172Z,35.57
2022-08-26T14:35:13.520Z,35.30
2022-08-26T14:36:28.680Z,35.47
2022-08-26T14:37:32.148Z,35.50